createdAt,value
2023-05-17T00:00:42.297Z,58.74
2023-05-17T00:01:44.694Z,58.79
2023-05-17T00:02:47.121Z,58.98
2023-05-17T00:03:50.052Z,58.72
2023-05-17T00:04:52.608Z,58.69
2023-05-17T00:05:55.106Z,58.73
2023-05-17T00:06:57.510Z,59.07
2023-05-17T00:08:00.374Z,58.89
2023-05-17T00:09:02.728Z,58.95
2023-05-17T00:10:05.950Z,58.88
2023-05-17T00:11:08.812Z,59.07
2023-05-17T00:12:11.150Z,58.93
2023-05-17T00:13:13.506Z,59.13
2023-05-17T00:14:16.207Z,59.04
2023-05-17T00:15:18.604Z,59.07
2023-05-17T00:16:21.024Z,59.13
2023-05-17T00:17:23.919Z,59.00
2023-05-17T00:18:26.518Z,58.97
2023-05-17T00:19:29.194Z,58.97
2023-05-17T00:20:32.150Z,59.06
2023-05-17T00:21:35.080Z,59.21
2023-05-17T00:22:37.489Z,59.08
2023-05-17T00:23:39.884Z,58.96
2023-05-17T00:24:42.207Z,59.10
2023-05-17T00:25:44.632Z,59.04
2023-05-17T00:26:47.157Z,59.02
2023-05-17T00:27:49.474Z,59.09
2023-05-17T00:28:52.940Z,59.01
2023-05-17T00:29:55.919Z,59.07
2023-05-17T00:30:58.336Z,59.17
2023-05-17T00:32:00.649Z,59.08
2023-05-17T00:33:03.087Z,59.23
2023-05-17T00:34:05.471Z,59.09
2023-05-17T00:35:07.936Z,59.10
2023-05-17T00:36:11.989Z,59.01
2023-05-17T00:37:14.383Z,59.16
2023-05-17T00:38:16.701Z,59.13
2023-05-17T00:39:19.660Z,59.07
2023-05-17T00:40:22.498Z,59.09
2023-05-17T00:41:25.018Z,59.10
2023-05-17T00:42:27.987Z,59.08
2023-05-17T00:43:30.612Z,59.09
2023-05-17T00:44:33.029Z,59.06
2023-05-17T00:45:35.701Z,59.28
2023-05-17T00:46:38.220Z,59.10
2023-05-17T00:47:40.617Z,59.15
2023-05-17T00:48:43.321Z,59.23
2023-05-17T00:49:45.821Z,59.22
2023-05-17T00:50:48.890Z,59.18
2023-05-17T00:51:52.559Z,59.22
2023-05-17T00:52:55.929Z,59.10
2023-05-17T00:53:58.687Z,59.04
2023-05-17T00:55:01.594Z,59.03
2023-05-17T00:56:05.098Z,59.15
2023-05-17T00:57:09.328Z,58.97
2023-05-17T00:58:12.515Z,58.83
2023-05-17T00:59:15.454Z,58.97
2023-05-17T01:00:18.833Z,58.88
2023-05-17T01:01:21.316Z,59.03
2023-05-17T01:02:24.528Z,58.94
2023-05-17T01:03:27.752Z,59.00
2023-05-17T01:04:30.270Z,58.94
2023-05-17T01:05:32.907Z,58.87
2023-05-17T01:06:38.450Z,58.93
2023-05-17T01:07:42.736Z,58.70
2023-05-17T01:08:45.096Z,58.76
2023-05-17T01:09:48.644Z,58.68
2023-05-17T01:11:15.904Z,58.75
2023-05-17T01:12:44.667Z,58.85
2023-05-17T01:14:02.661Z,58.81
2023-05-17T01:15:16.958Z,58.54
2023-05-17T01:16:26.830Z,58.56
2023-05-17T01:17:35.860Z,58.62
2023-05-17T01:18:41.474Z,58.71
2023-05-17T01:22:40.311Z,58.74
2023-05-17T01:24:02.865Z,58.75
2023-05-17T01:25:28.959Z,58.86
2023-05-17T01:26:38.854Z,58.71
2023-05-17T01:27:44.677Z,58.66
2023-05-17T01:28:51.068Z,58.70
2023-05-17T01:29:56.353Z,58.78
2023-05-17T01:31:01.862Z,58.89
2023-05-17T01:32:06.851Z,58.97
2023-05-17T01:33:10.136Z,59.12
2023-05-17T01:34:12.668Z,59.14
2023-05-17T01:35:16.317Z,59.10
2023-05-17T01:36:18.832Z,59.02
2023-05-17T01:37:21.263Z,59.01
2023-05-17T01:38:25.638Z,59.07
2023-05-17T01:39:28.106Z,58.99
2023-05-17T01:40:35.494Z,59.06
2023-05-17T01:41:43.033Z,59.19
2023-05-17T01:42:54.866Z,59.12
2023-05-17T01:45:58.108Z,59.12
2023-05-17T01:47:04.090Z,59.20
2023-05-17T01:48:19.062Z,59.35
2023-05-17T01:49:24.646Z,59.19
2023-05-17T01:50:30.231Z,59.25
2023-05-17T01:51:35.765Z,59.33
2023-05-17T01:52:41.853Z,59.30
2023-05-17T01:53:47.813Z,59.28
2023-05-17T01:55:12.075Z,59.26
2023-05-17T01:57:31.060Z,59.51
2023-05-17T01:58:37.336Z,59.46
2023-05-17T01:59:41.726Z,59.62
2023-05-17T02:00:47.798Z,59.64
2023-05-17T02:01:53.422Z,59.70
2023-05-17T02:02:55.990Z,59.67
2023-05-17T02:03:58.996Z,59.66
2023-05-17T02:05:01.413Z,59.71
2023-05-17T02:06:03.958Z,59.73
2023-05-17T02:07:06.374Z,59.67
2023-05-17T02:08:08.750Z,59.95
2023-05-17T02:09:11.069Z,59.78
2023-05-17T02:10:15.088Z,59.76
2023-05-17T02:11:18.150Z,59.74
2023-05-17T02:12:20.501Z,59.82
2023-05-17T02:13:23.457Z,59.68
2023-05-17T02:14:25.860Z,59.70
2023-05-17T02:15:28.402Z,59.79
2023-05-17T02:16:31.212Z,59.71
2023-05-17T02:17:33.788Z,59.85
2023-05-17T02:18:36.904Z,59.80
2023-05-17T02:19:39.396Z,59.70
2023-05-17T02:20:42.637Z,59.74
2023-05-17T02:21:45.287Z,59.67
2023-05-17T02:22:47.680Z,59.82
2023-05-17T02:23:50.099Z,59.86
2023-05-17T02:24:54.285Z,59.95
2023-05-17T02:25:56.699Z,59.82
2023-05-17T02:26:59.116Z,59.77
2023-05-17T02:28:01.803Z,59.81
2023-05-17T02:29:04.269Z,59.79
2023-05-17T02:30:07.475Z,59.78
2023-05-17T02:31:09.980Z,59.56
2023-05-17T02:32:12.343Z,59.81
2023-05-17T02:33:14.831Z,59.84
2023-05-17T02:34:17.305Z,59.75
2023-05-17T02:35:20.297Z,60.18
2023-05-17T02:36:22.648Z,59.86
2023-05-17T02:37:25.083Z,60.37
2023-05-17T02:38:27.411Z,60.67
2023-05-17T02:39:31.951Z,60.78
2023-05-17T02:40:35.053Z,60.81
2023-05-17T02:41:38.805Z,60.47
2023-05-17T02:42:41.295Z,61.14
2023-05-17T02:43:44.076Z,60.76
2023-05-17T02:44:46.484Z,60.32
2023-05-17T02:45:50.922Z,60.37
2023-05-17T02:46:53.655Z,60.54
2023-05-17T02:47:55.992Z,60.59
2023-05-17T02:48:58.505Z,60.58
2023-05-17T02:50:00.784Z,60.58
2023-05-17T02:51:03.210Z,60.33
2023-05-17T02:52:05.916Z,60.34
2023-05-17T02:53:08.419Z,59.81
2023-05-17T02:54:10.822Z,59.72
2023-05-17T02:55:13.151Z,59.86
2023-05-17T02:56:15.702Z,59.76
2023-05-17T02:57:18.519Z,59.95
2023-05-17T02:58:20.885Z,59.66
2023-05-17T02:59:23.276Z,59.65
2023-05-17T03:00:25.752Z,59.56
2023-05-17T03:01:29.193Z,59.45
2023-05-17T03:02:31.813Z,59.38
2023-05-17T03:03:34.871Z,59.26
2023-05-17T03:04:38.223Z,59.35
2023-05-17T03:05:41.277Z,59.40
2023-05-17T03:06:45.229Z,59.29
2023-05-17T03:07:48.016Z,59.41
2023-05-17T03:08:50.315Z,59.33
2023-05-17T03:09:52.612Z,59.34
2023-05-17T03:10:55.625Z,59.47
2023-05-17T03:11:58.081Z,59.56
2023-05-17T03:13:02.334Z,59.29
2023-05-17T03:14:06.572Z,59.36
2023-05-17T03:15:09.566Z,59.47
2023-05-17T03:16:14.146Z,59.41
2023-05-17T03:17:16.918Z,59.47
2023-05-17T03:18:20.394Z,59.28
2023-05-17T03:19:23.496Z,59.52
2023-05-17T03:20:26.839Z,59.46
2023-05-17T03:21:29.197Z,59.49
2023-05-17T03:22:31.484Z,59.45
2023-05-17T03:23:34.869Z,59.45
2023-05-17T03:24:38.272Z,59.57
2023-05-17T03:25:40.994Z,59.54
2023-05-17T03:26:43.861Z,59.55
2023-05-17T03:27:47.819Z,59.66
2023-05-17T03:28:50.227Z,59.74
2023-05-17T03:29:53.635Z,59.86
2023-05-17T03:30:59.638Z,59.78
2023-05-17T03:32:04.278Z,59.56
2023-05-17T03:33:07.293Z,59.65
2023-05-17T03:34:09.954Z,59.52
2023-05-17T03:35:13.445Z,59.71
2023-05-17T03:36:18.513Z,59.84
2023-05-17T03:37:22.028Z,59.69
2023-05-17T03:38:24.465Z,59.65
2023-05-17T03:39:27.354Z,59.74
2023-05-17T03:40:29.817Z,59.91
2023-05-17T03:41:33.495Z,59.91
2023-05-17T03:42:36.232Z,59.94
2023-05-17T03:43:39.536Z,59.90
2023-05-17T03:44:42.694Z,59.77
2023-05-17T03:45:46.296Z,59.90
2023-05-17T03:46:49.638Z,59.73
2023-05-17T03:47:53.240Z,59.75
2023-05-17T03:48:55.668Z,59.91
2023-05-17T03:49:58.075Z,59.56
2023-05-17T03:51:01.031Z,59.99
2023-05-17T03:52:03.783Z,59.87
2023-05-17T03:53:06.442Z,59.66
2023-05-17T03:54:09.421Z,60.00
2023-05-17T03:55:12.089Z,59.73
2023-05-17T03:56:15.230Z,59.68
2023-05-17T03:57:18.056Z,59.62
2023-05-17T03:58:20.930Z,59.72
2023-05-17T03:59:23.908Z,59.79
2023-05-17T04:00:26.532Z,59.97
2023-05-17T04:01:31.265Z,59.90
2023-05-17T04:02:34.194Z,60.04
2023-05-17T04:03:37.118Z,60.12
2023-05-17T04:04:39.595Z,60.03
2023-05-17T04:05:42.391Z,60.12
2023-05-17T04:06:45.479Z,59.69
2023-05-17T04:07:47.935Z,59.68
2023-05-17T04:08:50.390Z,59.54
2023-05-17T04:09:53.544Z,59.60
2023-05-17T04:10:56.429Z,59.38
2023-05-17T04:11:58.985Z,59.48
2023-05-17T04:13:02.340Z,59.22
2023-05-17T04:14:04.770Z,59.42
2023-05-17T04:15:09.112Z,59.41
2023-05-17T04:16:12.379Z,59.40
2023-05-17T04:17:16.978Z,59.42
2023-05-17T04:18:21.426Z,59.44
2023-05-17T04:19:24.079Z,59.64
2023-05-17T04:20:27.268Z,59.59
2023-05-17T04:21:30.469Z,59.66
2023-05-17T04:22:33.084Z,59.67
2023-05-17T04:23:35.572Z,59.62
2023-05-17T04:24:37.963Z,59.67
2023-05-17T04:25:40.387Z,59.74
2023-05-17T04:26:43.989Z,59.79
2023-05-17T04:27:46.368Z,59.46
2023-05-17T04:28:49.226Z,59.68
2023-05-17T04:29:52.410Z,59.62
2023-05-17T04:30:55.559Z,59.56
2023-05-17T04:31:58.839Z,59.51
2023-05-17T04:33:01.314Z,59.76
2023-05-17T04:34:04.403Z,59.28
2023-05-17T04:35:07.283Z,59.45
2023-05-17T04:36:11.030Z,59.58
2023-05-17T04:37:13.863Z,59.92
2023-05-17T04:38:16.555Z,59.83
2023-05-17T04:39:21.285Z,59.69
2023-05-17T04:40:24.046Z,59.30
2023-05-17T04:41:26.645Z,59.30
2023-05-17T04:42:29.820Z,59.51
2023-05-17T04:43:33.754Z,59.38
2023-05-17T04:44:36.672Z,58.95
2023-05-17T04:45:39.385Z,59.46
2023-05-17T04:46:41.901Z,59.29
2023-05-17T04:47:44.527Z,59.29
2023-05-17T04:48:47.036Z,59.21
2023-05-17T04:49:49.592Z,59.08
2023-05-17T04:50:53.230Z,58.82
2023-05-17T04:51:56.054Z,58.59
2023-05-17T04:52:58.617Z,58.83
2023-05-17T04:54:01.208Z,58.75
2023-05-17T04:55:04.506Z,58.61
2023-05-17T04:56:08.130Z,58.63
2023-05-17T04:57:11.216Z,58.55
2023-05-17T04:58:18.042Z,58.51
2023-05-17T04:59:22.646Z,58.30
2023-05-17T05:00:25.438Z,58.28
2023-05-17T05:01:30.822Z,58.36
2023-05-17T05:02:34.625Z,58.16
2023-05-17T05:03:37.928Z,58.54
2023-05-17T05:04:41.756Z,58.08
2023-05-17T05:05:44.528Z,58.20
2023-05-17T05:06:48.397Z,58.11
2023-05-17T05:07:51.524Z,58.05
2023-05-17T05:08:54.305Z,58.10
2023-05-17T05:09:57.562Z,58.07
2023-05-17T05:11:01.426Z,57.97
2023-05-17T05:12:05.855Z,58.10
2023-05-17T05:13:09.024Z,58.29
2023-05-17T05:14:11.476Z,58.43
2023-05-17T05:15:13.863Z,58.31
2023-05-17T05:16:17.870Z,58.33
2023-05-17T05:17:21.159Z,57.70
2023-05-17T05:18:23.697Z,57.94
2023-05-17T05:19:26.247Z,58.17
2023-05-17T05:20:29.259Z,58.36
2023-05-17T05:21:31.912Z,58.15
2023-05-17T05:22:35.055Z,57.29
2023-05-17T05:23:37.363Z,57.00
2023-05-17T05:24:39.885Z,57.42
2023-05-17T05:25:43.412Z,57.75
2023-05-17T05:26:46.107Z,57.68
2023-05-17T05:27:50.252Z,57.73
2023-05-17T05:28:52.665Z,58.09
2023-05-17T05:29:55.504Z,57.63
2023-05-17T05:31:00.215Z,56.84
2023-05-17T05:32:04.825Z,57.05
2023-05-17T05:33:09.851Z,57.05
2023-05-17T05:34:12.902Z,57.00
2023-05-17T05:35:18.103Z,57.07
2023-05-17T05:36:20.711Z,57.31
2023-05-17T05:37:23.125Z,57.08
2023-05-17T05:38:25.600Z,55.73
2023-05-17T05:39:29.023Z,55.80
2023-05-17T05:40:31.887Z,56.33
2023-05-17T05:41:34.872Z,56.50
2023-05-17T05:42:37.381Z,56.65
2023-05-17T05:43:40.432Z,55.82
2023-05-17T05:44:42.822Z,56.10
2023-05-17T05:45:45.436Z,55.98
2023-05-17T05:46:47.923Z,56.42
2023-05-17T05:47:50.302Z,55.47
2023-05-17T05:48:53.759Z,55.55
2023-05-17T05:49:56.255Z,55.20
2023-05-17T05:50:58.915Z,54.53
2023-05-17T05:52:01.892Z,54.88
2023-05-17T05:53:17.225Z,54.75
2023-05-17T05:54:10.502Z,55.09
2023-05-17T05:55:14.134Z,54.33
2023-05-17T05:56:16.625Z,54.61
2023-05-17T05:57:19.417Z,53.98
2023-05-17T05:58:21.775Z,53.89
2023-05-17T05:59:24.850Z,53.63
2023-05-17T06:00:27.595Z,53.78
2023-05-17T06:01:31.239Z,54.45
2023-05-17T06:02:33.701Z,54.37
2023-05-17T06:03:36.747Z,54.41
2023-05-17T06:04:45.051Z,53.85
2023-05-17T06:05:44.014Z,53.84
2023-05-17T06:06:46.496Z,53.51
2023-05-17T06:07:48.887Z,53.16
2023-05-17T06:08:51.257Z,52.78
2023-05-17T06:09:53.755Z,52.99
2023-05-17T06:10:56.259Z,52.78
2023-05-17T06:11:58.584Z,52.57
2023-05-17T06:13:01.662Z,52.93
2023-05-17T06:14:04.523Z,53.08
2023-05-17T06:15:10.876Z,53.23
2023-05-17T06:16:14.258Z,52.70
2023-05-17T06:17:16.655Z,52.85
2023-05-17T06:18:18.993Z,52.60
2023-05-17T06:19:21.536Z,52.90
2023-05-17T06:20:24.901Z,52.57
2023-05-17T06:21:27.291Z,52.35
2023-05-17T06:22:29.636Z,52.55
2023-05-17T06:23:32.028Z,51.97
2023-05-17T06:24:34.312Z,52.79
2023-05-17T06:25:36.582Z,53.05
2023-05-17T06:26:39.742Z,52.85
2023-05-17T06:27:42.422Z,52.63
2023-05-17T06:28:45.150Z,52.17
2023-05-17T06:29:47.552Z,52.06
2023-05-17T06:30:50.281Z,51.71
2023-05-17T06:31:53.123Z,51.98
2023-05-17T06:32:56.747Z,52.26
2023-05-17T06:33:59.790Z,52.25
2023-05-17T06:35:02.606Z,52.44
2023-05-17T06:36:05.538Z,52.48
2023-05-17T06:37:08.396Z,51.96
2023-05-17T06:38:11.337Z,51.85
2023-05-17T06:39:14.192Z,51.81
2023-05-17T06:40:32.127Z,51.82
2023-05-17T06:41:20.918Z,51.45
2023-05-17T06:42:23.752Z,51.01
2023-05-17T06:43:27.088Z,50.81
2023-05-17T06:44:30.025Z,50.49
2023-05-17T06:45:32.494Z,50.52
2023-05-17T06:46:34.817Z,51.75
2023-05-17T06:47:37.356Z,50.29
2023-05-17T06:48:40.630Z,50.92
2023-05-17T06:49:43.192Z,51.44
2023-05-17T06:50:45.576Z,50.18
2023-05-17T06:51:47.957Z,49.73
2023-05-17T06:52:50.201Z,50.22
2023-05-17T06:53:53.119Z,49.52
2023-05-17T06:54:55.696Z,49.09
2023-05-17T06:55:58.422Z,49.25
2023-05-17T06:57:01.516Z,48.76
2023-05-17T06:58:03.939Z,49.07
2023-05-17T06:59:06.317Z,48.38
2023-05-17T07:00:10.771Z,48.48
2023-05-17T07:01:13.805Z,48.36
2023-05-17T07:02:16.735Z,48.48
2023-05-17T07:03:19.334Z,48.94
2023-05-17T07:04:21.971Z,49.29
2023-05-17T07:05:27.894Z,48.73
2023-05-17T07:06:30.618Z,48.48
2023-05-17T07:07:33.395Z,48.66
2023-05-17T07:08:35.881Z,47.65
2023-05-17T07:09:38.326Z,47.93
2023-05-17T07:10:40.859Z,47.68
2023-05-17T07:11:43.421Z,48.35
2023-05-17T07:12:47.089Z,47.82
2023-05-17T07:13:50.659Z,47.74
2023-05-17T07:14:54.654Z,48.42
2023-05-17T07:15:57.819Z,48.70
2023-05-17T07:17:00.226Z,47.59
2023-05-17T07:18:03.165Z,47.64
2023-05-17T07:19:06.299Z,47.08
2023-05-17T07:20:09.904Z,46.52
2023-05-17T07:21:12.441Z,45.65
2023-05-17T07:22:15.269Z,44.94
2023-05-17T07:23:17.713Z,45.42
2023-05-17T07:24:20.531Z,46.70
2023-05-17T07:25:24.121Z,45.89
2023-05-17T07:26:26.470Z,45.42
2023-05-17T07:27:28.689Z,45.13
2023-05-17T07:28:31.495Z,45.28
2023-05-17T07:29:33.864Z,44.65
2023-05-17T07:30:36.873Z,44.11
2023-05-17T07:31:39.377Z,43.82
2023-05-17T07:32:41.739Z,45.35
2023-05-17T07:33:44.504Z,44.56
2023-05-17T07:34:47.039Z,43.64
2023-05-17T07:35:49.774Z,43.43
2023-05-17T07:36:52.292Z,42.90
2023-05-17T07:37:55.140Z,43.90
2023-05-17T07:38:58.136Z,43.00
2023-05-17T07:40:00.652Z,41.97
2023-05-17T07:41:03.778Z,41.57
2023-05-17T07:42:07.187Z,41.50
2023-05-17T07:43:09.620Z,41.98
2023-05-17T07:44:11.964Z,42.05
2023-05-17T07:45:14.337Z,41.41
2023-05-17T07:46:17.777Z,41.47
2023-05-17T07:47:20.198Z,41.45
2023-05-17T07:48:22.566Z,41.89
2023-05-17T07:49:26.713Z,41.55
2023-05-17T07:50:29.236Z,42.84
2023-05-17T07:51:32.023Z,42.68
2023-05-17T07:52:34.408Z,42.13
2023-05-17T07:53:36.733Z,42.34
2023-05-17T07:54:39.161Z,41.90
2023-05-17T07:55:42.736Z,40.99
2023-05-17T07:56:45.590Z,40.99
2023-05-17T07:57:48.023Z,41.38
2023-05-17T07:58:50.415Z,40.99
2023-05-17T07:59:53.336Z,41.50
2023-05-17T08:00:56.181Z,42.12
2023-05-17T08:01:58.654Z,41.90
2023-05-17T08:03:01.198Z,41.55
2023-05-17T08:04:03.496Z,42.39
2023-05-17T08:05:06.809Z,41.27
2023-05-17T08:06:09.887Z,41.33
2023-05-17T08:07:12.368Z,41.47
2023-05-17T08:08:14.699Z,41.86
2023-05-17T08:09:17.535Z,42.35
2023-05-17T08:10:20.856Z,41.37
2023-05-17T08:11:23.269Z,41.46
2023-05-17T08:12:26.574Z,41.63
2023-05-17T08:13:28.925Z,42.49
2023-05-17T08:14:31.209Z,40.90
2023-05-17T08:15:33.666Z,41.49
2023-05-17T08:16:37.063Z,41.20
2023-05-17T08:17:39.558Z,41.55
2023-05-17T08:18:42.761Z,42.13
2023-05-17T08:19:45.310Z,41.35
2023-05-17T08:20:48.071Z,40.78
2023-05-17T08:21:50.452Z,40.98
2023-05-17T08:22:54.524Z,40.84
2023-05-17T08:23:57.067Z,41.27
2023-05-17T08:24:59.424Z,41.23
2023-05-17T08:26:04.039Z,40.93
2023-05-17T08:27:06.554Z,40.25
2023-05-17T08:28:09.460Z,41.29
2023-05-17T08:29:11.797Z,40.97
2023-05-17T08:30:18.099Z,40.91
2023-05-17T08:31:18.940Z,41.32
2023-05-17T08:32:21.475Z,41.15
2023-05-17T08:33:24.378Z,41.33
2023-05-17T08:34:26.862Z,40.82
2023-05-17T08:35:29.295Z,40.50
2023-05-17T08:36:32.242Z,40.55
2023-05-17T08:37:35.622Z,40.93
2023-05-17T08:38:38.044Z,41.14
2023-05-17T08:39:40.492Z,40.92
2023-05-17T08:40:43.494Z,41.40
2023-05-17T08:41:49.165Z,40.65
2023-05-17T08:42:52.241Z,41.45
2023-05-17T08:43:55.621Z,41.06
2023-05-17T08:44:58.194Z,41.83
2023-05-17T08:46:00.956Z,40.94
2023-05-17T08:47:04.522Z,41.09
2023-05-17T08:48:07.631Z,39.54
2023-05-17T08:49:11.849Z,40.00
2023-05-17T08:50:14.710Z,39.65
2023-05-17T08:51:19.147Z,40.45
2023-05-17T08:52:21.865Z,39.72
2023-05-17T08:53:24.360Z,39.04
2023-05-17T08:54:27.882Z,38.72
2023-05-17T08:55:32.534Z,38.96
2023-05-17T08:56:38.611Z,38.18
2023-05-17T08:57:41.624Z,38.47
2023-05-17T08:59:52.911Z,38.18
2023-05-17T09:00:57.381Z,38.10
2023-05-17T09:02:00.898Z,39.29
2023-05-17T09:03:03.915Z,38.61
2023-05-17T09:04:08.577Z,39.03
2023-05-17T09:05:11.313Z,38.50
2023-05-17T09:06:23.041Z,38.25
2023-05-17T09:07:26.547Z,38.46
2023-05-17T09:08:29.286Z,37.86
2023-05-17T09:09:32.685Z,38.56
2023-05-17T09:10:35.260Z,37.48
2023-05-17T09:11:38.808Z,36.50
2023-05-17T09:12:41.364Z,36.55
2023-05-17T09:13:44.274Z,37.00
2023-05-17T09:14:47.027Z,36.76
2023-05-17T09:15:49.946Z,36.89
2023-05-17T09:16:57.290Z,37.48
2023-05-17T09:18:00.767Z,37.42
2023-05-17T09:19:06.011Z,37.48
2023-05-17T09:20:10.307Z,36.70
2023-05-17T09:21:14.043Z,36.37
2023-05-17T09:22:19.758Z,36.81
2023-05-17T09:23:22.534Z,36.13
2023-05-17T09:24:29.285Z,36.50
2023-05-17T09:25:31.824Z,35.98
2023-05-17T09:27:54.948Z,35.54
2023-05-17T09:28:57.422Z,36.00
2023-05-17T09:30:01.055Z,36.40
2023-05-17T09:31:07.320Z,36.16
2023-05-17T09:32:18.199Z,36.71
2023-05-17T09:33:20.630Z,36.29
2023-05-17T09:34:25.548Z,35.88
2023-05-17T09:36:43.456Z,36.15
2023-05-17T09:37:46.733Z,36.59
2023-05-17T09:40:06.758Z,36.87
2023-05-17T09:41:09.323Z,37.24
2023-05-17T09:42:12.376Z,36.37
2023-05-17T09:43:16.922Z,36.72
2023-05-17T09:44:19.779Z,36.99
2023-05-17T09:45:23.084Z,37.24
2023-05-17T09:46:25.772Z,36.82
2023-05-17T09:47:31.824Z,36.93
2023-05-17T09:48:38.001Z,37.18
2023-05-17T09:49:40.503Z,37.80
2023-05-17T09:50:46.856Z,38.42
2023-05-17T09:51:49.838Z,38.02
2023-05-17T09:52:52.149Z,37.54
2023-05-17T09:53:54.467Z,38.18
2023-05-17T09:54:59.371Z,38.34
2023-05-17T09:56:04.149Z,38.60
2023-05-17T09:57:06.742Z,38.71
2023-05-17T09:58:09.159Z,38.17
2023-05-17T09:59:14.699Z,38.34
2023-05-17T10:00:19.679Z,38.60
2023-05-17T10:01:28.055Z,38.39
2023-05-17T10:02:31.857Z,38.54
2023-05-17T10:03:36.474Z,38.41
2023-05-17T10:04:39.981Z,38.46
2023-05-17T10:05:44.791Z,38.88
2023-05-17T10:06:52.387Z,39.62
2023-05-17T10:07:56.425Z,39.68
2023-05-17T10:09:01.888Z,40.43
2023-05-17T10:10:06.284Z,40.95
2023-05-17T10:11:09.757Z,41.28
2023-05-17T10:12:15.808Z,41.12
2023-05-17T10:13:21.752Z,40.78
2023-05-17T10:14:33.698Z,41.00
2023-05-17T10:15:36.748Z,41.10
2023-05-17T10:16:40.116Z,40.71
2023-05-17T10:17:45.403Z,40.69
2023-05-17T10:18:49.533Z,41.01
2023-05-17T10:19:53.116Z,41.54
2023-05-17T10:20:56.889Z,41.00
2023-05-17T10:22:11.496Z,41.66
2023-05-17T10:23:06.803Z,40.97
2023-05-17T10:24:11.770Z,40.56
2023-05-17T10:25:14.651Z,40.19
2023-05-17T10:26:18.325Z,40.42
2023-05-17T10:27:21.522Z,40.91
2023-05-17T10:28:26.100Z,41.13
2023-05-17T10:29:29.934Z,41.07
2023-05-17T10:30:34.843Z,40.85
2023-05-17T10:31:37.691Z,40.65
2023-05-17T10:32:40.882Z,40.47
2023-05-17T10:33:47.249Z,40.62
2023-05-17T10:34:58.110Z,40.58
2023-05-17T10:35:56.214Z,40.96
2023-05-17T10:37:00.819Z,40.64
2023-05-17T10:38:03.174Z,40.89
2023-05-17T10:39:06.722Z,40.33
2023-05-17T10:40:11.207Z,40.72
2023-05-17T10:41:16.868Z,40.42
2023-05-17T10:42:22.016Z,40.39
2023-05-17T10:43:27.087Z,40.49
2023-05-17T10:44:34.909Z,40.25
2023-05-17T10:45:37.679Z,40.45
2023-05-17T10:46:40.362Z,40.50
2023-05-17T10:47:43.066Z,40.92
2023-05-17T10:48:47.997Z,40.74
2023-05-17T10:49:50.822Z,41.20
2023-05-17T10:51:01.191Z,40.90
2023-05-17T10:52:12.431Z,41.32
2023-05-17T10:53:14.695Z,40.14
2023-05-17T10:54:18.015Z,40.21
2023-05-17T10:56:33.238Z,40.41
2023-05-17T10:57:46.791Z,40.42
2023-05-17T10:58:43.859Z,40.46
2023-05-17T11:00:00.531Z,39.85
2023-05-17T11:01:02.837Z,40.06
2023-05-17T11:02:09.854Z,39.95
2023-05-17T11:03:20.437Z,39.80
2023-05-17T11:04:28.349Z,39.56
2023-05-17T11:05:30.856Z,39.39
2023-05-17T11:06:36.496Z,39.38
2023-05-17T11:07:38.883Z,39.70
2023-05-17T11:09:01.311Z,39.31
2023-05-17T11:10:12.674Z,39.08
2023-05-17T11:11:19.106Z,39.40
2023-05-17T11:12:42.041Z,39.64
2023-05-17T11:14:56.340Z,39.21
2023-05-17T11:16:09.451Z,39.31
2023-05-17T11:17:16.781Z,38.66
2023-05-17T11:18:30.525Z,39.24
2023-05-17T11:19:25.623Z,39.02
2023-05-17T11:20:31.689Z,39.67
2023-05-17T11:21:34.538Z,39.22
2023-05-17T11:22:39.316Z,38.21
2023-05-17T11:23:46.367Z,38.01
2023-05-17T11:24:54.143Z,38.04
2023-05-17T11:26:05.701Z,38.35
2023-05-17T11:27:05.265Z,38.24
2023-05-17T11:28:10.346Z,38.49
2023-05-17T11:29:14.640Z,37.69
2023-05-17T11:30:28.979Z,37.65
2023-05-17T11:31:34.204Z,37.38
2023-05-17T11:32:36.509Z,38.62
2023-05-17T11:34:54.010Z,37.13
2023-05-17T11:35:56.283Z,37.32
2023-05-17T11:36:59.232Z,35.83
2023-05-17T11:38:22.178Z,36.13
2023-05-17T11:39:24.571Z,36.01
2023-05-17T11:40:27.657Z,36.17
2023-05-17T11:41:30.762Z,35.67
2023-05-17T11:42:37.665Z,37.03
2023-05-17T11:43:43.493Z,37.26
2023-05-17T11:44:47.063Z,36.52
2023-05-17T11:45:55.757Z,35.81
2023-05-17T11:47:06.129Z,35.67
2023-05-17T11:48:09.379Z,36.14
2023-05-17T11:49:17.716Z,36.87
2023-05-17T11:50:17.570Z,35.59
2023-05-17T11:51:25.337Z,35.83
2023-05-17T11:52:29.500Z,36.27
2023-05-17T11:53:32.705Z,35.87
2023-05-17T11:54:38.473Z,34.80
2023-05-17T11:55:42.600Z,35.52
2023-05-17T11:56:44.932Z,35.51
2023-05-17T11:57:47.534Z,34.45
2023-05-17T11:58:53.881Z,34.19
2023-05-17T12:00:00.773Z,33.95
2023-05-17T12:01:03.083Z,34.25
2023-05-17T12:02:06.156Z,33.94
2023-05-17T12:04:28.358Z,33.64
2023-05-17T12:05:30.682Z,33.15
2023-05-17T12:06:33.548Z,33.19
2023-05-17T12:07:36.420Z,33.29
2023-05-17T12:08:41.890Z,34.14
2023-05-17T12:09:45.552Z,33.62
2023-05-17T12:12:02.872Z,33.07
2023-05-17T12:13:07.506Z,33.37
2023-05-17T12:14:10.242Z,33.25
2023-05-17T12:15:17.202Z,33.40
2023-05-17T12:16:25.205Z,33.08
2023-05-17T12:17:33.912Z,34.12
2023-05-17T12:18:50.960Z,33.52
2023-05-17T12:19:53.846Z,34.13
2023-05-17T12:20:58.156Z,33.94
2023-05-17T12:22:11.475Z,33.87
2023-05-17T12:23:13.718Z,34.12
2023-05-17T12:24:16.430Z,33.36
2023-05-17T12:25:20.186Z,32.64
2023-05-17T12:26:24.124Z,33.56
2023-05-17T12:27:26.714Z,33.50
2023-05-17T12:28:29.916Z,34.47
2023-05-17T12:29:32.443Z,34.46
2023-05-17T12:30:34.908Z,34.96
2023-05-17T12:31:49.491Z,34.64
2023-05-17T12:32:51.997Z,34.61
2023-05-17T12:33:55.817Z,33.19
2023-05-17T12:34:59.032Z,33.97
2023-05-17T12:36:02.657Z,33.45
2023-05-17T12:37:06.452Z,32.73
2023-05-17T12:38:09.274Z,34.24
2023-05-17T12:39:13.691Z,34.40
2023-05-17T12:40:16.641Z,34.26
2023-05-17T12:41:20.501Z,33.71
2023-05-17T12:42:22.833Z,33.83
2023-05-17T12:43:25.031Z,34.48
2023-05-17T12:44:27.365Z,34.34
2023-05-17T12:45:30.178Z,34.48
2023-05-17T12:46:33.012Z,35.02
2023-05-17T12:47:35.741Z,34.51
2023-05-17T12:48:41.195Z,33.91
2023-05-17T12:51:11.985Z,35.40
2023-05-17T12:52:17.449Z,34.42
2023-05-17T12:53:19.855Z,34.04
2023-05-17T12:54:29.362Z,34.67
2023-05-17T12:55:37.163Z,35.38
2023-05-17T12:56:41.677Z,35.78
2023-05-17T12:57:52.172Z,35.94
2023-05-17T12:59:16.504Z,36.25
2023-05-17T13:00:20.971Z,36.62
2023-05-17T13:01:23.793Z,36.50
2023-05-17T13:02:26.037Z,37.17
2023-05-17T13:03:29.044Z,36.68
2023-05-17T13:04:33.427Z,36.92
2023-05-17T13:05:36.074Z,36.39
2023-05-17T13:06:47.362Z,36.99
2023-05-17T13:07:49.755Z,37.07
2023-05-17T13:08:59.719Z,36.50
2023-05-17T13:10:02.743Z,36.78
2023-05-17T13:12:22.308Z,37.13
2023-05-17T13:13:24.947Z,37.49
2023-05-17T13:14:38.502Z,37.15
2023-05-17T13:15:40.850Z,36.84
2023-05-17T13:16:43.420Z,36.96
2023-05-17T13:17:47.760Z,36.86
2023-05-17T13:18:52.263Z,36.43
2023-05-17T13:19:55.407Z,36.74
2023-05-17T13:20:57.717Z,37.30
2023-05-17T13:21:59.931Z,37.54
2023-05-17T13:23:05.373Z,36.46
2023-05-17T13:24:09.293Z,36.20
2023-05-17T13:25:12.764Z,36.30
2023-05-17T13:26:17.780Z,36.18
2023-05-17T13:27:20.017Z,35.91
2023-05-17T13:28:22.225Z,35.47
2023-05-17T13:29:38.255Z,34.79
2023-05-17T13:30:30.784Z,35.15
2023-05-17T13:31:34.093Z,35.87
2023-05-17T13:32:36.765Z,35.42
2023-05-17T13:33:39.806Z,35.12
2023-05-17T13:34:42.718Z,34.98
2023-05-17T13:35:44.985Z,35.31
2023-05-17T13:36:47.701Z,35.96
2023-05-17T13:37:50.312Z,35.39
2023-05-17T13:38:52.618Z,35.63
2023-05-17T13:39:55.240Z,35.74
2023-05-17T13:40:57.658Z,35.74
2023-05-17T13:41:59.787Z,36.06
2023-05-17T13:43:02.017Z,36.05
2023-05-17T13:44:04.709Z,35.87
2023-05-17T13:45:07.859Z,35.32
2023-05-17T13:46:10.954Z,34.73
2023-05-17T13:47:13.284Z,34.71
2023-05-17T13:48:15.909Z,34.89
2023-05-17T13:49:18.347Z,34.79
2023-05-17T13:50:20.747Z,34.89
2023-05-17T13:51:23.446Z,34.66
2023-05-17T13:52:25.824Z,34.93
2023-05-17T13:53:28.176Z,35.11
2023-05-17T13:54:30.272Z,34.80
2023-05-17T13:55:32.540Z,35.25
2023-05-17T13:56:35.477Z,35.58
2023-05-17T13:57:37.733Z,35.18
2023-05-17T13:58:40.519Z,35.37
2023-05-17T13:59:45.539Z,35.37
2023-05-17T14:00:47.185Z,35.21
2023-05-17T14:01:49.549Z,34.93
2023-05-17T14:02:51.971Z,34.40